Wing, North Dakota
Current Conditions -  °F | °C
As of 6:52 AM on Wednesday 22 Oct 2014 (Local Time) from KBIS Reporting Station
Clear Clear  
Wind Chill: 57°   Ceiling: Unl
Heat Index: 57°   Visibility: 10mi
Dew Point: 47°   Wind: 10mph
Humidity: 69%   Direction: 280°W
Pressure: 29.77"   Gusts: NA
Location:  47.14°N, 100.28°W
Report Text: KBIS 221152Z 28009KT 240V300 10SM CLR 14/08 A2977 RMK AO2 SLP077 T01390083 10189 20117 53028
Loading
Personal Weather Stations






























Interactive Weather Map New forecast layout! Learn more

10-Day Weather Forecast

Advertisements
Track Severe Weather on mobile